sensor_id;sensor_type;location;lat;lon;timestamp;P1;durP1;ratioP1;P2;durP2;ratioP2
19754;SDS011;10036;47.812;9.274;2023-06-10T00:00:22;6.72;;;5.47;;
19754;SDS011;10036;47.812;9.274;2023-06-10T00:02:49;7.88;;;5.68;;
19754;SDS011;10036;47.812;9.274;2023-06-10T00:05:16;6.43;;;5.70;;
19754;SDS011;10036;47.812;9.274;2023-06-10T00:07:46;8.25;;;5.45;;
19754;SDS011;10036;47.812;9.274;2023-06-10T00:10:13;7.03;;;5.20;;
19754;SDS011;10036;47.812;9.274;2023-06-10T00:12:40;7.60;;;5.70;;
19754;SDS011;10036;47.812;9.274;2023-06-10T00:15:10;6.78;;;5.50;;
19754;SDS011;10036;47.812;9.274;2023-06-10T00:17:37;6.28;;;5.60;;
19754;SDS011;10036;47.812;9.274;2023-06-10T00:20:05;8.50;;;5.65;;
19754;SDS011;10036;47.812;9.274;2023-06-10T00:22:35;7.68;;;5.18;;
19754;SDS011;10036;47.812;9.274;2023-06-10T00:25:03;5.97;;;5.43;;
19754;SDS011;10036;47.812;9.274;2023-06-10T00:27:30;8.52;;;5.85;;
19754;SDS011;10036;47.812;9.274;2023-06-10T00:30:00;7.82;;;6.07;;
19754;SDS011;10036;47.812;9.274;2023-06-10T00:32:30;7.82;;;6.20;;
19754;SDS011;10036;47.812;9.274;2023-06-10T00:34:57;6.03;;;5.43;;
19754;SDS011;10036;47.812;9.274;2023-06-10T00:37:24;6.60;;;5.45;;
19754;SDS011;10036;47.812;9.274;2023-06-10T00:39:51;6.85;;;5.80;;
19754;SDS011;10036;47.812;9.274;2023-06-10T00:42:18;6.60;;;5.85;;
19754;SDS011;10036;47.812;9.274;2023-06-10T00:44:45;9.68;;;6.50;;
19754;SDS011;10036;47.812;9.274;2023-06-10T00:47:12;7.57;;;6.13;;
19754;SDS011;10036;47.812;9.274;2023-06-10T00:49:41;8.10;;;5.93;;
19754;SDS011;10036;47.812;9.274;2023-06-10T00:52:08;9.00;;;6.43;;
19754;SDS011;10036;47.812;9.274;2023-06-10T00:54:36;9.43;;;6.57;;
19754;SDS011;10036;47.812;9.274;2023-06-10T00:57:04;6.88;;;5.85;;
19754;SDS011;10036;47.812;9.274;2023-06-10T00:59:31;8.07;;;6.38;;
19754;SDS011;10036;47.812;9.274;2023-06-10T01:01:59;8.00;;;6.43;;
19754;SDS011;10036;47.812;9.274;2023-06-10T01:04:27;10.75;;;6.97;;
19754;SDS011;10036;47.812;9.274;2023-06-10T01:06:57;8.13;;;6.43;;
19754;SDS011;10036;47.812;9.274;2023-06-10T01:09:33;7.78;;;6.47;;
19754;SDS011;10036;47.812;9.274;2023-06-10T01:12:05;8.20;;;6.55;;
19754;SDS011;10036;47.812;9.274;2023-06-10T01:14:38;6.97;;;6.25;;
19754;SDS011;10036;47.812;9.274;2023-06-10T01:17:10;8.43;;;6.82;;
19754;SDS011;10036;47.812;9.274;2023-06-10T01:19:37;7.03;;;6.32;;
19754;SDS011;10036;47.812;9.274;2023-06-10T01:22:07;8.75;;;5.90;;
19754;SDS011;10036;47.812;9.274;2023-06-10T01:24:35;7.07;;;6.47;;
19754;SDS011;10036;47.812;9.274;2023-06-10T01:27:05;8.32;;;6.30;;
19754;SDS011;10036;47.812;9.274;2023-06-10T01:29:41;7.78;;;6.60;;
19754;SDS011;10036;47.812;9.274;2023-06-10T01:32:12;7.47;;;6.72;;
19754;SDS011;10036;47.812;9.274;2023-06-10T01:34:42;7.82;;;6.63;;
19754;SDS011;10036;47.812;9.274;2023-06-10T01:37:13;13.00;;;7.00;;
19754;SDS011;10036;47.812;9.274;2023-06-10T01:39:44;7.72;;;6.93;;
19754;SDS011;10036;47.812;9.274;2023-06-10T01:42:12;10.20;;;7.57;;
19754;SDS011;10036;47.812;9.274;2023-06-10T01:44:40;8.77;;;6.57;;
19754;SDS011;10036;47.812;9.274;2023-06-10T01:47:07;11.10;;;6.90;;
19754;SDS011;10036;47.812;9.274;2023-06-10T01:49:34;8.88;;;7.63;;
19754;SDS011;10036;47.812;9.274;2023-06-10T01:52:01;9.30;;;7.07;;
19754;SDS011;10036;47.812;9.274;2023-06-10T01:54:29;7.63;;;6.72;;
19754;SDS011;10036;47.812;9.274;2023-06-10T01:56:56;8.55;;;7.45;;
19754;SDS011;10036;47.812;9.274;2023-06-10T01:59:23;10.15;;;7.35;;
19754;SDS011;10036;47.812;9.274;2023-06-10T02:01:50;9.25;;;7.05;;
19754;SDS011;10036;47.812;9.274;2023-06-10T02:04:16;10.13;;;7.45;;
19754;SDS011;10036;47.812;9.274;2023-06-10T02:06:43;9.23;;;7.45;;
19754;SDS011;10036;47.812;9.274;2023-06-10T02:09:11;9.60;;;7.18;;
19754;SDS011;10036;47.812;9.274;2023-06-10T02:11:39;8.25;;;7.40;;
19754;SDS011;10036;47.812;9.274;2023-06-10T02:14:06;9.27;;;7.40;;
19754;SDS011;10036;47.812;9.274;2023-06-10T02:16:33;9.02;;;7.43;;
19754;SDS011;10036;47.812;9.274;2023-06-10T02:18:59;10.15;;;7.43;;
19754;SDS011;10036;47.812;9.274;2023-06-10T02:21:30;8.60;;;7.45;;
19754;SDS011;10036;47.812;9.274;2023-06-10T02:23:57;9.85;;;6.93;;
19754;SDS011;10036;47.812;9.274;2023-06-10T02:26:24;10.65;;;7.68;;
19754;SDS011;10036;47.812;9.274;2023-06-10T02:28:53;12.10;;;7.95;;
19754;SDS011;10036;47.812;9.274;2023-06-10T02:31:20;7.95;;;7.15;;
19754;SDS011;10036;47.812;9.274;2023-06-10T02:33:48;9.77;;;8.13;;
19754;SDS011;10036;47.812;9.274;2023-06-10T02:36:15;9.95;;;7.95;;
19754;SDS011;10036;47.812;9.274;2023-06-10T02:38:42;9.52;;;7.13;;
19754;SDS011;10036;47.812;9.274;2023-06-10T02:41:08;7.60;;;6.80;;
19754;SDS011;10036;47.812;9.274;2023-06-10T02:43:35;8.43;;;7.53;;
19754;SDS011;10036;47.812;9.274;2023-06-10T02:46:03;10.23;;;7.60;;
19754;SDS011;10036;47.812;9.274;2023-06-10T02:48:30;7.82;;;7.13;;
19754;SDS011;10036;47.812;9.274;2023-06-10T02:50:57;9.25;;;7.38;;
19754;SDS011;10036;47.812;9.274;2023-06-10T02:53:24;8.45;;;7.60;;
19754;SDS011;10036;47.812;9.274;2023-06-10T02:55:51;7.88;;;7.18;;
19754;SDS011;10036;47.812;9.274;2023-06-10T02:58:18;9.40;;;7.20;;
19754;SDS011;10036;47.812;9.274;2023-06-10T03:00:46;8.65;;;7.15;;
19754;SDS011;10036;47.812;9.274;2023-06-10T03:03:14;10.00;;;7.75;;
19754;SDS011;10036;47.812;9.274;2023-06-10T03:05:41;9.20;;;7.82;;
19754;SDS011;10036;47.812;9.274;2023-06-10T03:08:08;12.10;;;8.13;;
19754;SDS011;10036;47.812;9.274;2023-06-10T03:10:34;8.52;;;7.72;;
19754;SDS011;10036;47.812;9.274;2023-06-10T03:13:01;8.55;;;7.40;;
19754;SDS011;10036;47.812;9.274;2023-06-10T03:15:28;10.43;;;7.25;;
19754;SDS011;10036;47.812;9.274;2023-06-10T03:17:57;8.20;;;7.30;;
19754;SDS011;10036;47.812;9.274;2023-06-10T03:20:26;9.38;;;8.38;;
19754;SDS011;10036;47.812;9.274;2023-06-10T03:22:53;9.00;;;7.30;;
19754;SDS011;10036;47.812;9.274;2023-06-10T03:25:20;9.85;;;7.32;;
19754;SDS011;10036;47.812;9.274;2023-06-10T03:27:47;10.13;;;8.90;;
19754;SDS011;10036;47.812;9.274;2023-06-10T03:30:14;13.02;;;8.98;;
19754;SDS011;10036;47.812;9.274;2023-06-10T03:32:41;9.65;;;8.30;;
19754;SDS011;10036;47.812;9.274;2023-06-10T03:35:08;9.20;;;7.93;;
19754;SDS011;10036;47.812;9.274;2023-06-10T03:37:37;8.27;;;7.47;;
19754;SDS011;10036;47.812;9.274;2023-06-10T03:40:04;9.50;;;8.60;;
19754;SDS011;10036;47.812;9.274;2023-06-10T03:42:32;9.43;;;8.07;;
19754;SDS011;10036;47.812;9.274;2023-06-10T03:44:59;9.57;;;7.82;;
19754;SDS011;10036;47.812;9.274;2023-06-10T03:47:26;11.88;;;8.38;;
19754;SDS011;10036;47.812;9.274;2023-06-10T03:49:53;11.82;;;8.65;;
19754;SDS011;10036;47.812;9.274;2023-06-10T03:52:19;13.50;;;8.40;;
19754;SDS011;10036;47.812;9.274;2023-06-10T03:54:48;11.45;;;8.80;;
19754;SDS011;10036;47.812;9.274;2023-06-10T03:57:15;9.27;;;8.18;;
19754;SDS011;10036;47.812;9.274;2023-06-10T03:59:42;10.35;;;8.48;;
19754;SDS011;10036;47.812;9.274;2023-06-10T04:02:08;9.68;;;8.63;;
19754;SDS011;10036;47.812;9.274;2023-06-10T04:04:35;14.55;;;8.10;;
19754;SDS011;10036;47.812;9.274;2023-06-10T04:07:02;10.48;;;8.90;;
19754;SDS011;10036;47.812;9.274;2023-06-10T04:09:30;12.02;;;8.73;;
19754;SDS011;10036;47.812;9.274;2023-06-10T04:11:58;10.07;;;8.27;;
19754;SDS011;10036;47.812;9.274;2023-06-10T04:14:25;13.20;;;8.40;;
19754;SDS011;10036;47.812;9.274;2023-06-10T04:16:52;8.95;;;7.93;;
19754;SDS011;10036;47.812;9.274;2023-06-10T04:19:19;9.27;;;8.32;;
19754;SDS011;10036;47.812;9.274;2023-06-10T04:21:46;9.32;;;8.00;;
19754;SDS011;10036;47.812;9.274;2023-06-10T04:24:13;9.20;;;8.30;;
19754;SDS011;10036;47.812;9.274;2023-06-10T04:26:40;9.20;;;7.97;;
19754;SDS011;10036;47.812;9.274;2023-06-10T04:29:09;8.98;;;8.07;;
19754;SDS011;10036;47.812;9.274;2023-06-10T04:31:35;8.77;;;7.82;;
19754;SDS011;10036;47.812;9.274;2023-06-10T04:34:02;9.25;;;8.23;;
19754;SDS011;10036;47.812;9.274;2023-06-10T04:36:29;9.10;;;8.23;;
19754;SDS011;10036;47.812;9.274;2023-06-10T04:38:56;9.10;;;8.20;;
19754;SDS011;10036;47.812;9.274;2023-06-10T04:41:23;9.95;;;8.32;;
19754;SDS011;10036;47.812;9.274;2023-06-10T04:43:50;9.13;;;8.23;;
19754;SDS011;10036;47.812;9.274;2023-06-10T04:46:20;11.80;;;8.07;;
19754;SDS011;10036;47.812;9.274;2023-06-10T04:48:46;9.13;;;8.30;;
19754;SDS011;10036;47.812;9.274;2023-06-10T04:51:13;11.93;;;8.23;;
19754;SDS011;10036;47.812;9.274;2023-06-10T04:53:40;8.65;;;7.80;;
19754;SDS011;10036;47.812;9.274;2023-06-10T04:56:07;11.35;;;8.27;;
19754;SDS011;10036;47.812;9.274;2023-06-10T04:58:34;10.35;;;8.18;;
19754;SDS011;10036;47.812;9.274;2023-06-10T05:01:01;9.25;;;8.27;;
19754;SDS011;10036;47.812;9.274;2023-06-10T05:03:29;8.73;;;7.82;;
19754;SDS011;10036;47.812;9.274;2023-06-10T05:05:56;9.85;;;7.72;;
19754;SDS011;10036;47.812;9.274;2023-06-10T05:08:23;10.05;;;8.48;;
19754;SDS011;10036;47.812;9.274;2023-06-10T05:10:50;8.75;;;7.65;;
19754;SDS011;10036;47.812;9.274;2023-06-10T05:13:17;10.30;;;8.68;;
19754;SDS011;10036;47.812;9.274;2023-06-10T05:15:44;8.73;;;7.82;;
19754;SDS011;10036;47.812;9.274;2023-06-10T05:18:11;10.02;;;8.20;;
19754;SDS011;10036;47.812;9.274;2023-06-10T05:20:40;9.55;;;7.55;;
19754;SDS011;10036;47.812;9.274;2023-06-10T05:23:06;9.68;;;8.07;;
19754;SDS011;10036;47.812;9.274;2023-06-10T05:25:33;9.05;;;7.85;;
19754;SDS011;10036;47.812;9.274;2023-06-10T05:28:01;9.05;;;8.15;;
19754;SDS011;10036;47.812;9.274;2023-06-10T05:30:28;9.20;;;8.25;;
19754;SDS011;10036;47.812;9.274;2023-06-10T05:32:55;10.07;;;8.55;;
19754;SDS011;10036;47.812;9.274;2023-06-10T05:35:22;8.50;;;7.70;;
19754;SDS011;10036;47.812;9.274;2023-06-10T05:37:51;9.90;;;8.65;;
19754;SDS011;10036;47.812;9.274;2023-06-10T05:40:18;8.43;;;7.63;;
19754;SDS011;10036;47.812;9.274;2023-06-10T05:42:44;8.13;;;7.22;;
19754;SDS011;10036;47.812;9.274;2023-06-10T05:45:11;10.80;;;7.78;;
19754;SDS011;10036;47.812;9.274;2023-06-10T05:47:38;9.40;;;8.32;;
19754;SDS011;10036;47.812;9.274;2023-06-10T05:50:06;9.23;;;8.32;;
19754;SDS011;10036;47.812;9.274;2023-06-10T05:52:34;10.10;;;7.97;;
19754;SDS011;10036;47.812;9.274;2023-06-10T05:55:03;9.65;;;8.65;;
19754;SDS011;10036;47.812;9.274;2023-06-10T05:57:30;9.45;;;8.45;;
19754;SDS011;10036;47.812;9.274;2023-06-10T05:59:57;8.80;;;7.90;;
19754;SDS011;10036;47.812;9.274;2023-06-10T06:02:24;10.02;;;8.68;;
19754;SDS011;10036;47.812;9.274;2023-06-10T06:04:50;9.18;;;7.72;;
19754;SDS011;10036;47.812;9.274;2023-06-10T06:07:17;9.32;;;8.43;;
19754;SDS011;10036;47.812;9.274;2023-06-10T06:09:45;9.60;;;7.60;;
19754;SDS011;10036;47.812;9.274;2023-06-10T06:12:13;8.65;;;7.85;;
19754;SDS011;10036;47.812;9.274;2023-06-10T06:14:40;9.20;;;7.20;;
19754;SDS011;10036;47.812;9.274;2023-06-10T06:17:07;8.85;;;7.53;;
19754;SDS011;10036;47.812;9.274;2023-06-10T06:19:34;9.50;;;8.50;;
19754;SDS011;10036;47.812;9.274;2023-06-10T06:22:01;8.65;;;7.80;;
19754;SDS011;10036;47.812;9.274;2023-06-10T06:24:28;10.52;;;8.63;;
19754;SDS011;10036;47.812;9.274;2023-06-10T06:26:54;9.65;;;8.65;;
19754;SDS011;10036;47.812;9.274;2023-06-10T06:29:23;10.13;;;8.02;;
19754;SDS011;10036;47.812;9.274;2023-06-10T06:31:50;8.70;;;7.80;;
19754;SDS011;10036;47.812;9.274;2023-06-10T06:34:17;8.95;;;7.82;;
19754;SDS011;10036;47.812;9.274;2023-06-10T06:36:44;11.55;;;8.70;;
19754;SDS011;10036;47.812;9.274;2023-06-10T06:39:11;8.13;;;7.32;;
19754;SDS011;10036;47.812;9.274;2023-06-10T06:41:38;10.13;;;8.75;;
19754;SDS011;10036;47.812;9.274;2023-06-10T06:44:05;8.73;;;7.88;;
19754;SDS011;10036;47.812;9.274;2023-06-10T06:46:33;9.13;;;7.70;;
19754;SDS011;10036;47.812;9.274;2023-06-10T06:49:00;8.73;;;7.65;;
19754;SDS011;10036;47.812;9.274;2023-06-10T06:51:27;9.32;;;8.27;;
19754;SDS011;10036;47.812;9.274;2023-06-10T06:53:54;9.32;;;8.43;;
19754;SDS011;10036;47.812;9.274;2023-06-10T06:56:23;10.75;;;7.85;;
19754;SDS011;10036;47.812;9.274;2023-06-10T06:58:51;8.50;;;7.70;;
19754;SDS011;10036;47.812;9.274;2023-06-10T07:01:18;9.48;;;7.60;;
19754;SDS011;10036;47.812;9.274;2023-06-10T07:03:46;9.23;;;8.25;;
19754;SDS011;10036;47.812;9.274;2023-06-10T07:06:13;10.18;;;7.72;;
19754;SDS011;10036;47.812;9.274;2023-06-10T07:08:40;8.73;;;7.90;;
19754;SDS011;10036;47.812;9.274;2023-06-10T07:11:07;8.82;;;6.95;;
19754;SDS011;10036;47.812;9.274;2023-06-10T07:13:34;8.15;;;7.35;;
19754;SDS011;10036;47.812;9.274;2023-06-10T07:16:01;11.45;;;7.95;;
19754;SDS011;10036;47.812;9.274;2023-06-10T07:18:28;8.32;;;7.53;;
19754;SDS011;10036;47.812;9.274;2023-06-10T07:20:56;11.30;;;8.52;;
19754;SDS011;10036;47.812;9.274;2023-06-10T07:23:23;8.82;;;7.93;;
19754;SDS011;10036;47.812;9.274;2023-06-10T07:25:50;8.95;;;8.05;;
19754;SDS011;10036;47.812;9.274;2023-06-10T07:28:16;9.13;;;7.95;;
19754;SDS011;10036;47.812;9.274;2023-06-10T07:30:43;9.65;;;8.00;;
19754;SDS011;10036;47.812;9.274;2023-06-10T07:33:10;9.05;;;8.18;;
19754;SDS011;10036;47.812;9.274;2023-06-10T07:35:37;8.63;;;7.55;;
19754;SDS011;10036;47.812;9.274;2023-06-10T07:38:05;8.18;;;7.30;;
19754;SDS011;10036;47.812;9.274;2023-06-10T07:40:32;8.25;;;7.43;;
19754;SDS011;10036;47.812;9.274;2023-06-10T07:42:59;8.00;;;7.20;;
19754;SDS011;10036;47.812;9.274;2023-06-10T07:45:26;8.00;;;7.30;;
19754;SDS011;10036;47.812;9.274;2023-06-10T07:47:53;10.93;;;8.02;;
19754;SDS011;10036;47.812;9.274;2023-06-10T07:50:20;7.88;;;6.72;;
19754;SDS011;10036;47.812;9.274;2023-06-10T07:52:47;8.90;;;7.35;;
19754;SDS011;10036;47.812;9.274;2023-06-10T07:55:15;8.15;;;7.15;;
19754;SDS011;10036;47.812;9.274;2023-06-10T07:57:42;7.85;;;7.15;;
19754;SDS011;10036;47.812;9.274;2023-06-10T08:00:10;7.55;;;6.82;;
19754;SDS011;10036;47.812;9.274;2023-06-10T08:02:37;8.30;;;7.55;;
19754;SDS011;10036;47.812;9.274;2023-06-10T08:05:04;8.02;;;7.05;;
19754;SDS011;10036;47.812;9.274;2023-06-10T08:07:31;8.27;;;6.70;;
19754;SDS011;10036;47.812;9.274;2023-06-10T08:09:58;7.82;;;6.95;;
19754;SDS011;10036;47.812;9.274;2023-06-10T08:12:26;8.80;;;6.70;;
19754;SDS011;10036;47.812;9.274;2023-06-10T08:14:53;8.70;;;7.05;;
19754;SDS011;10036;47.812;9.274;2023-06-10T08:17:20;7.72;;;6.80;;
19754;SDS011;10036;47.812;9.274;2023-06-10T08:19:47;9.05;;;6.43;;
19754;SDS011;10036;47.812;9.274;2023-06-10T08:22:14;7.53;;;6.43;;
19754;SDS011;10036;47.812;9.274;2023-06-10T08:24:41;9.27;;;6.75;;
19754;SDS011;10036;47.812;9.274;2023-06-10T08:27:10;8.57;;;6.80;;
19754;SDS011;10036;47.812;9.274;2023-06-10T08:29:38;9.30;;;6.72;;
19754;SDS011;10036;47.812;9.274;2023-06-10T08:32:05;9.85;;;6.57;;
19754;SDS011;10036;47.812;9.274;2023-06-10T08:34:33;7.43;;;6.65;;
19754;SDS011;10036;47.812;9.274;2023-06-10T08:37:01;10.57;;;6.25;;
19754;SDS011;10036;47.812;9.274;2023-06-10T08:39:28;6.50;;;5.90;;
19754;SDS011;10036;47.812;9.274;2023-06-10T08:42:00;6.93;;;6.22;;
19754;SDS011;10036;47.812;9.274;2023-06-10T08:44:33;7.70;;;6.57;;
19754;SDS011;10036;47.812;9.274;2023-06-10T08:47:06;7.20;;;6.50;;
19754;SDS011;10036;47.812;9.274;2023-06-10T08:49:41;7.18;;;6.47;;
19754;SDS011;10036;47.812;9.274;2023-06-10T08:52:11;6.80;;;6.20;;
19754;SDS011;10036;47.812;9.274;2023-06-10T08:54:42;7.28;;;6.38;;
19754;SDS011;10036;47.812;9.274;2023-06-10T08:57:15;8.30;;;5.97;;
19754;SDS011;10036;47.812;9.274;2023-06-10T08:59:45;6.75;;;6.15;;
19754;SDS011;10036;47.812;9.274;2023-06-10T09:02:14;7.25;;;6.20;;
19754;SDS011;10036;47.812;9.274;2023-06-10T09:04:44;8.45;;;6.03;;
19754;SDS011;10036;47.812;9.274;2023-06-10T09:07:13;6.95;;;6.28;;
19754;SDS011;10036;47.812;9.274;2023-06-10T09:09:41;7.40;;;6.05;;
19754;SDS011;10036;47.812;9.274;2023-06-10T09:12:09;7.20;;;6.32;;
19754;SDS011;10036;47.812;9.274;2023-06-10T09:14:36;8.05;;;5.75;;
19754;SDS011;10036;47.812;9.274;2023-06-10T09:17:03;6.82;;;6.22;;
19754;SDS011;10036;47.812;9.274;2023-06-10T09:19:33;7.30;;;6.07;;
19754;SDS011;10036;47.812;9.274;2023-06-10T09:22:01;6.80;;;6.10;;
19754;SDS011;10036;47.812;9.274;2023-06-10T09:24:28;7.00;;;6.35;;
19754;SDS011;10036;47.812;9.274;2023-06-10T09:27:01;9.82;;;6.35;;
19754;SDS011;10036;47.812;9.274;2023-06-10T09:29:30;7.60;;;5.97;;
19754;SDS011;10036;47.812;9.274;2023-06-10T09:31:57;8.30;;;6.10;;
19754;SDS011;10036;47.812;9.274;2023-06-10T09:34:25;7.57;;;5.70;;
19754;SDS011;10036;47.812;9.274;2023-06-10T09:36:53;8.63;;;5.30;;
19754;SDS011;10036;47.812;9.274;2023-06-10T09:39:20;5.95;;;5.43;;
19754;SDS011;10036;47.812;9.274;2023-06-10T09:41:47;6.90;;;5.43;;
19754;SDS011;10036;47.812;9.274;2023-06-10T09:44:14;6.00;;;5.40;;
19754;SDS011;10036;47.812;9.274;2023-06-10T09:46:42;5.65;;;5.07;;
19754;SDS011;10036;47.812;9.274;2023-06-10T09:49:12;6.57;;;5.57;;
19754;SDS011;10036;47.812;9.274;2023-06-10T09:51:48;8.60;;;5.63;;
19754;SDS011;10036;47.812;9.274;2023-06-10T09:54:18;5.93;;;5.28;;
19754;SDS011;10036;47.812;9.274;2023-06-10T09:56:46;5.82;;;5.32;;
19754;SDS011;10036;47.812;9.274;2023-06-10T09:59:13;6.57;;;5.25;;
19754;SDS011;10036;47.812;9.274;2023-06-10T10:01:41;7.38;;;5.72;;
19754;SDS011;10036;47.812;9.274;2023-06-10T10:04:07;6.10;;;5.50;;
19754;SDS011;10036;47.812;9.274;2023-06-10T10:06:34;5.90;;;5.30;;
19754;SDS011;10036;47.812;9.274;2023-06-10T10:09:02;5.85;;;5.03;;
19754;SDS011;10036;47.812;9.274;2023-06-10T10:11:31;7.30;;;5.40;;
19754;SDS011;10036;47.812;9.274;2023-06-10T10:14:00;5.82;;;5.32;;
19754;SDS011;10036;47.812;9.274;2023-06-10T10:16:33;6.22;;;5.63;;
19754;SDS011;10036;47.812;9.274;2023-06-10T10:19:06;6.68;;;5.57;;
19754;SDS011;10036;47.812;9.274;2023-06-10T10:21:35;5.78;;;5.28;;
19754;SDS011;10036;47.812;9.274;2023-06-10T10:24:07;6.63;;;5.07;;
19754;SDS011;10036;47.812;9.274;2023-06-10T10:26:39;5.75;;;5.25;;
19754;SDS011;10036;47.812;9.274;2023-06-10T10:29:08;5.32;;;4.82;;
19754;SDS011;10036;47.812;9.274;2023-06-10T10:31:37;5.65;;;5.15;;
19754;SDS011;10036;47.812;9.274;2023-06-10T10:34:09;5.90;;;5.18;;
19754;SDS011;10036;47.812;9.274;2023-06-10T10:36:39;5.32;;;4.70;;
19754;SDS011;10036;47.812;9.274;2023-06-10T10:39:07;6.95;;;5.15;;
19754;SDS011;10036;47.812;9.274;2023-06-10T10:41:35;6.03;;;4.72;;
19754;SDS011;10036;47.812;9.274;2023-06-10T10:44:05;5.18;;;4.50;;
19754;SDS011;10036;47.812;9.274;2023-06-10T10:46:41;4.82;;;4.43;;
19754;SDS011;10036;47.812;9.274;2023-06-10T10:49:09;7.07;;;4.30;;
19754;SDS011;10036;47.812;9.274;2023-06-10T10:51:38;5.22;;;4.70;;
19754;SDS011;10036;47.812;9.274;2023-06-10T10:54:21;5.32;;;4.82;;
19754;SDS011;10036;47.812;9.274;2023-06-10T10:57:11;6.30;;;4.50;;
19754;SDS011;10036;47.812;9.274;2023-06-10T11:02:33;8.05;;;4.90;;
19754;SDS011;10036;47.812;9.274;2023-06-10T11:05:03;5.78;;;4.50;;
19754;SDS011;10036;47.812;9.274;2023-06-10T11:07:31;5.68;;;4.38;;
19754;SDS011;10036;47.812;9.274;2023-06-10T11:09:59;8.07;;;4.68;;
19754;SDS011;10036;47.812;9.274;2023-06-10T11:12:40;5.80;;;4.78;;
19754;SDS011;10036;47.812;9.274;2023-06-10T11:15:19;7.75;;;4.95;;
19754;SDS011;10036;47.812;9.274;2023-06-10T11:18:10;5.88;;;4.95;;
19754;SDS011;10036;47.812;9.274;2023-06-10T11:20:41;5.32;;;4.82;;
19754;SDS011;10036;47.812;9.274;2023-06-10T11:23:10;5.55;;;5.05;;
19754;SDS011;10036;47.812;9.274;2023-06-10T11:25:50;5.07;;;4.57;;
19754;SDS011;10036;47.812;9.274;2023-06-10T11:28:18;5.18;;;4.68;;
19754;SDS011;10036;47.812;9.274;2023-06-10T11:30:47;4.93;;;4.50;;
19754;SDS011;10036;47.812;9.274;2023-06-10T11:33:23;10.98;;;4.35;;
19754;SDS011;10036;47.812;9.274;2023-06-10T11:35:51;6.18;;;4.68;;
19754;SDS011;10036;47.812;9.274;2023-06-10T11:38:18;5.40;;;4.22;;
19754;SDS011;10036;47.812;9.274;2023-06-10T11:40:46;5.40;;;4.45;;
19754;SDS011;10036;47.812;9.274;2023-06-10T11:43:15;5.30;;;4.82;;
19754;SDS011;10036;47.812;9.274;2023-06-10T11:45:42;5.20;;;4.40;;
19754;SDS011;10036;47.812;9.274;2023-06-10T11:48:12;5.07;;;4.57;;
19754;SDS011;10036;47.812;9.274;2023-06-10T11:50:39;5.00;;;4.40;;
19754;SDS011;10036;47.812;9.274;2023-06-10T11:53:07;5.60;;;4.30;;
19754;SDS011;10036;47.812;9.274;2023-06-10T11:55:41;5.95;;;4.57;;
19754;SDS011;10036;47.812;9.274;2023-06-10T11:58:12;4.57;;;4.18;;
19754;SDS011;10036;47.812;9.274;2023-06-10T12:00:43;4.35;;;4.05;;
19754;SDS011;10036;47.812;9.274;2023-06-10T12:03:13;4.32;;;4.00;;
19754;SDS011;10036;47.812;9.274;2023-06-10T12:05:40;6.82;;;5.15;;
19754;SDS011;10036;47.812;9.274;2023-06-10T12:08:19;4.82;;;4.43;;
19754;SDS011;10036;47.812;9.274;2023-06-10T12:10:46;4.70;;;4.30;;
19754;SDS011;10036;47.812;9.274;2023-06-10T12:13:13;5.40;;;4.40;;
19754;SDS011;10036;47.812;9.274;2023-06-10T12:15:40;6.22;;;4.70;;
19754;SDS011;10036;47.812;9.274;2023-06-10T12:18:07;6.07;;;5.30;;
19754;SDS011;10036;47.812;9.274;2023-06-10T12:20:35;5.35;;;4.85;;
19754;SDS011;10036;47.812;9.274;2023-06-10T12:23:08;5.82;;;5.40;;
19754;SDS011;10036;47.812;9.274;2023-06-10T12:25:36;5.05;;;4.65;;
19754;SDS011;10036;47.812;9.274;2023-06-10T12:28:03;6.05;;;4.50;;
19754;SDS011;10036;47.812;9.274;2023-06-10T12:30:31;7.03;;;4.88;;
19754;SDS011;10036;47.812;9.274;2023-06-10T12:32:58;6.50;;;4.40;;
19754;SDS011;10036;47.812;9.274;2023-06-10T12:35:26;4.63;;;4.15;;
19754;SDS011;10036;47.812;9.274;2023-06-10T12:37:58;5.32;;;4.35;;
19754;SDS011;10036;47.812;9.274;2023-06-10T12:40:27;4.63;;;4.25;;
19754;SDS011;10036;47.812;9.274;2023-06-10T12:42:55;4.43;;;4.03;;
19754;SDS011;10036;47.812;9.274;2023-06-10T12:45:28;4.32;;;3.90;;
19754;SDS011;10036;47.812;9.274;2023-06-10T12:48:05;6.53;;;3.83;;
19754;SDS011;10036;47.812;9.274;2023-06-10T12:50:34;3.90;;;3.60;;
19754;SDS011;10036;47.812;9.274;2023-06-10T12:53:03;4.22;;;3.80;;
19754;SDS011;10036;47.812;9.274;2023-06-10T12:55:30;3.55;;;3.25;;
19754;SDS011;10036;47.812;9.274;2023-06-10T12:57:57;4.03;;;3.72;;
19754;SDS011;10036;47.812;9.274;2023-06-10T13:00:24;4.10;;;3.70;;
19754;SDS011;10036;47.812;9.274;2023-06-10T13:02:54;4.03;;;3.33;;
19754;SDS011;10036;47.812;9.274;2023-06-10T13:05:21;4.85;;;3.70;;
19754;SDS011;10036;47.812;9.274;2023-06-10T13:07:48;4.78;;;3.40;;
19754;SDS011;10036;47.812;9.274;2023-06-10T13:10:16;3.88;;;3.55;;
19754;SDS011;10036;47.812;9.274;2023-06-10T13:12:44;4.40;;;3.50;;
19754;SDS011;10036;47.812;9.274;2023-06-10T13:15:11;6.13;;;2.95;;
19754;SDS011;10036;47.812;9.274;2023-06-10T13:17:39;4.40;;;3.40;;
19754;SDS011;10036;47.812;9.274;2023-06-10T13:20:07;3.40;;;3.10;;
19754;SDS011;10036;47.812;9.274;2023-06-10T13:22:34;3.10;;;2.90;;
19754;SDS011;10036;47.812;9.274;2023-06-10T13:25:01;3.60;;;3.30;;
19754;SDS011;10036;47.812;9.274;2023-06-10T13:27:30;4.97;;;3.30;;
19754;SDS011;10036;47.812;9.274;2023-06-10T13:29:57;3.60;;;3.30;;
19754;SDS011;10036;47.812;9.274;2023-06-10T13:32:24;3.13;;;2.92;;
19754;SDS011;10036;47.812;9.274;2023-06-10T13:34:51;3.15;;;2.95;;
19754;SDS011;10036;47.812;9.274;2023-06-10T13:37:19;3.28;;;2.97;;
19754;SDS011;10036;47.812;9.274;2023-06-10T13:39:46;3.03;;;2.80;;
19754;SDS011;10036;47.812;9.274;2023-06-10T13:42:15;2.92;;;2.72;;
19754;SDS011;10036;47.812;9.274;2023-06-10T13:44:43;3.33;;;3.13;;
19754;SDS011;10036;47.812;9.274;2023-06-10T13:47:12;3.40;;;2.60;;
19754;SDS011;10036;47.812;9.274;2023-06-10T13:49:39;3.75;;;2.85;;
19754;SDS011;10036;47.812;9.274;2023-06-10T13:52:06;3.38;;;2.72;;
19754;SDS011;10036;47.812;9.274;2023-06-10T13:54:34;3.47;;;2.80;;
19754;SDS011;10036;47.812;9.274;2023-06-10T13:57:01;4.20;;;2.72;;
19754;SDS011;10036;47.812;9.274;2023-06-10T13:59:28;3.03;;;2.83;;
19754;SDS011;10036;47.812;9.274;2023-06-10T14:01:57;3.10;;;2.50;;
19754;SDS011;10036;47.812;9.274;2023-06-10T14:04:24;2.33;;;2.13;;
19754;SDS011;10036;47.812;9.274;2023-06-10T14:06:50;2.63;;;2.42;;
19754;SDS011;10036;47.812;9.274;2023-06-10T14:09:17;2.80;;;2.60;;
19754;SDS011;10036;47.812;9.274;2023-06-10T14:11:44;4.57;;;2.65;;
19754;SDS011;10036;47.812;9.274;2023-06-10T14:14:12;2.92;;;2.65;;
19754;SDS011;10036;47.812;9.274;2023-06-10T14:16:40;2.58;;;2.38;;
19754;SDS011;10036;47.812;9.274;2023-06-10T14:19:09;2.83;;;2.50;;
19754;SDS011;10036;47.812;9.274;2023-06-10T14:21:36;4.07;;;2.80;;
19754;SDS011;10036;47.812;9.274;2023-06-10T14:24:03;2.70;;;2.50;;
19754;SDS011;10036;47.812;9.274;2023-06-10T14:26:30;2.70;;;2.50;;
19754;SDS011;10036;47.812;9.274;2023-06-10T14:28:57;2.40;;;2.30;;
19754;SDS011;10036;47.812;9.274;2023-06-10T14:31:25;3.50;;;2.45;;
19754;SDS011;10036;47.812;9.274;2023-06-10T14:33:51;2.83;;;2.38;;
19754;SDS011;10036;47.812;9.274;2023-06-10T14:36:20;3.53;;;2.50;;
19754;SDS011;10036;47.812;9.274;2023-06-10T14:38:46;2.92;;;2.72;;
19754;SDS011;10036;47.812;9.274;2023-06-10T14:41:13;3.25;;;2.95;;
19754;SDS011;10036;47.812;9.274;2023-06-10T14:43:40;3.70;;;2.90;;
19754;SDS011;10036;47.812;9.274;2023-06-10T14:46:07;2.80;;;2.60;;
19754;SDS011;10036;47.812;9.274;2023-06-10T14:48:34;3.30;;;3.05;;
19754;SDS011;10036;47.812;9.274;2023-06-10T14:51:01;3.45;;;3.05;;
19754;SDS011;10036;47.812;9.274;2023-06-10T14:53:30;2.95;;;2.65;;